M I D A S
Marine Information and Data Acquisition System
Tripno 1724 of the Zeeleeuw from 2009-03-16 08:21:21 to 2009-03-16 13:36:56
Back to CruiseResearch ActivitiesStationsMapUnderway DataData graphs

EquipmentUnitsComment
TimeDGPSUTC
LatitudeDGPSDM.mWGS84
LongitudeDGPSDM.mWGS84
TemperatureSBE03/SBE38deg celciusITS90
ConductivitySBE21S/mITS90
SalinitySBE21 Practical Salinity Units
ChlorophylAChelsea fluorimeterg/lCalibrated in Aceton
Missing or incorrect values are displayed as -999
Sea surface data collected by the RV Zeeleeuw from 2009-03-16 08:24:21 to 2009-03-16 13:46:07
Time Latitude Longitude Temperature Conductivity Salinity ChlorophylA
2009-03-16 08:25:30 51°13.678 2°55.912 -999 0.049516 0.341041 -1.035392
2009-03-16 08:26:30 51°13.693 2°55.852 -999 0.049516 0.340984 -1.035392
2009-03-16 08:27:29 51°13.699 2°55.788 -999 0.049516 0.34091 -1.035392
2009-03-16 08:28:27 51°13.706 2°55.77 -999 0.049516 0.340812 -1.035392
2009-03-16 08:29:26 51°13.709 2°55.766 -999 0.049619 0.341456 -1.070216
2009-03-16 08:30:27 51°13.728 2°55.744 -999 0.049619 0.34139 -1.035392
2009-03-16 08:31:27 51°13.803 2°55.662 -999 0.049619 0.3413 -1.070216
2009-03-16 08:32:27 51°13.934 2°55.558 -999 0.049619 0.341227 -1.070216
2009-03-16 08:33:27 51°14.078 2°55.45 -999 0.049619 0.341202 -1.070216
2009-03-16 08:34:27 51°14.22 2°55.32 -999 0.049619 0.34108 -1.070216
2009-03-16 08:35:27 51°14.34 2°55.124 -999 0.049619 0.340941 -1.070216
2009-03-16 08:36:27 51°14.447 2°54.893 -999 0.049722 0.341478 -1.383633
2009-03-16 08:37:27 51°14.53 2°54.623 -999 3.383657 30.406866 31.908163
2009-03-16 08:38:27 51°14.608 2°54.338 -999 3.400562 32.259108 32.117107
2009-03-16 08:39:27 51°14.717 2°54.105 -999 3.440652 32.924146 29.261534
2009-03-16 08:40:27 51°14.833 2°54.19 -999 3.453499 33.17215 26.440786
2009-03-16 08:41:27 51°14.735 2°54.335 -999 3.46417 33.351041 25.117472
2009-03-16 08:42:27 51°14.553 2°54.219 -999 3.455055 33.316046 24.804056
2009-03-16 08:43:27 51°14.384 2°54.008 -999 3.44915 33.277473 27.7641
2009-03-16 08:44:27 51°14.219 2°53.782 -999 3.453708 33.336029 31.176857
2009-03-16 08:45:27 51°14.083 2°53.508 -999 3.446975 33.276198 33.370773
2009-03-16 08:46:27 51°13.954 2°53.225 -999 3.440863 33.232701 35.66916
2009-03-16 08:47:27 51°13.823 2°52.94 -999 3.449151 33.332209 35.808457
2009-03-16 08:48:27 51°13.696 2°52.652 -999 3.452259 33.384168 35.251272
2009-03-16 08:49:27 51°13.573 2°52.358 -999 3.45661 33.451329 35.111976
2009-03-16 08:50:27 51°13.453 2°52.062 -999 3.456299 33.447989 35.077151
2009-03-16 08:51:27 51°13.376 2°51.797 -999 3.453916 33.416165 35.66916
2009-03-16 08:52:27 51°13.362 2°51.576 -999 3.456506 33.439555 35.808457
2009-03-16 08:53:27 51°13.353 2°51.361 -999 3.457024 33.445121 35.007503
2009-03-16 08:54:27 51°13.395 2°51.218 -999 3.452259 33.38594 33.057356
2009-03-16 08:55:27 51°13.43 2°51.142 -999 3.446354 33.313683 31.350978
2009-03-16 08:56:26 51°13.456 2°51.097 -999 3.440242 33.248081 30.619673
2009-03-16 08:57:26 51°13.472 2°51.065 -999 3.434959 33.186105 30.201784
2009-03-16 08:58:27 51°13.474 2°51.034 -999 3.437445 33.211015 30.16696
2009-03-16 08:59:27 51°13.475 2°51.005 -999 3.434026 33.176104 29.923192
2009-03-16 09:00:26 51°13.476 2°50.977 -999 3.434441 33.184071 30.34108
2009-03-16 09:01:27 51°13.475 2°50.947 -999 3.435891 33.200512 29.679423
2009-03-16 09:02:27 51°13.475 2°50.918 -999 3.434959 33.194033 29.087414
2009-03-16 09:03:27 51°13.471 2°50.891 -999 3.437652 33.217644 28.634702
2009-03-16 09:04:27 51°13.456 2°50.864 -999 3.437756 33.213467 28.565053
2009-03-16 09:05:27 51°13.436 2°50.837 -999 3.439206 33.228145 28.70435
2009-03-16 09:06:27 51°13.417 2°50.809 -999 3.441485 33.252596 28.599877
2009-03-16 09:07:27 51°13.399 2°50.779 -999 3.440863 33.238872 27.659628
2009-03-16 09:08:27 51°13.383 2°50.748 -999 3.44221 33.2445 27.485508
2009-03-16 09:09:27 51°13.369 2°50.717 -999 3.438584 33.203857 26.928323
2009-03-16 09:10:27 51°13.364 2°50.695 -999 3.441277 33.224809 26.684555
2009-03-16 09:11:27 51°13.368 2°50.686 -999 3.441588 33.212293 27.973045
2009-03-16 09:12:27 51°13.378 2°50.688 -999 3.447385 32.921387 24.037926
2009-03-16 09:13:27 51°13.389 2°50.69 -999 3.460439 33.125769 23.341445
2009-03-16 09:14:27 51°13.4 2°50.687 -999 3.451945 33.165187 20.903762
2009-03-16 09:15:27 51°13.412 2°50.68 -999 3.44718 33.139681 18.709846
2009-03-16 09:16:27 51°13.422 2°50.672 -999 3.447906 33.185068 20.346577
2009-03-16 09:17:27 51°13.431 2°50.673 -999 3.45578 33.350289 24.107575
2009-03-16 09:18:26 51°13.427 2°50.713 -999 3.457023 33.383951 24.386167
2009-03-16 09:19:27 51°13.409 2°50.791 -999 3.455677 33.373045 25.36124
2009-03-16 09:20:26 51°13.394 2°50.862 -999 3.450186 33.328295 25.256768
2009-03-16 09:21:27 51°13.376 2°50.88 -999 3.442002 33.222015 26.858675
2009-03-16 09:22:27 51°13.357 2°50.869 -999 3.438895 33.193986 25.883601
2009-03-16 09:23:26 51°13.338 2°50.852 -999 3.437445 33.178443 25.535361
2009-03-16 09:24:27 51°13.319 2°50.831 -999 3.434751 33.145186 25.013
2009-03-16 09:25:27 51°13.302 2°50.806 -999 3.4275 33.041235 22.401196
2009-03-16 09:26:27 51°13.283 2°50.778 -999 3.432472 33.107608 23.794158
2009-03-16 09:27:27 51°13.266 2°50.751 -999 3.427707 33.045203 23.689686
2009-03-16 09:28:27 51°13.248 2°50.721 -999 3.432679 33.101935 24.595111
2009-03-16 09:29:27 51°13.231 2°50.691 -999 3.438791 33.193756 25.883601
2009-03-16 09:30:27 51°13.214 2°50.66 -999 3.434855 33.128737 25.709481
2009-03-16 09:31:26 51°13.197 2°50.631 -999 3.440552 33.217916 26.789027
2009-03-16 09:32:27 51°13.181 2°50.6 -999 3.448529 33.327307 28.530229
2009-03-16 09:33:27 51°13.164 2°50.568 -999 3.457024 33.453117 30.5152
2009-03-16 09:34:27 51°13.148 2°50.538 -999 3.456817 33.451779 29.958016
2009-03-16 09:35:27 51°13.132 2°50.508 -999 3.453502 33.401066 28.948118
2009-03-16 09:36:26 51°13.104 2°50.472 -999 3.454123 33.401535 29.22671
2009-03-16 09:37:27 51°13.052 2°50.402 -999 3.442002 33.156998 20.451049
2009-03-16 09:38:26 51°13.005 2°50.302 -999 3.452776 33.302214 22.78426
2009-03-16 09:39:27 51°12.955 2°50.208 -999 3.462722 33.498348 26.266666
2009-03-16 09:40:27 51°12.914 2°50.127 -999 3.468109 33.577641 26.12737
2009-03-16 09:41:27 51°12.881 2°50.054 -999 3.471113 33.618889 26.162194
2009-03-16 09:42:27 51°12.852 2°49.987 -999 3.47246 33.638745 26.057722
2009-03-16 09:43:27 51°12.823 2°49.929 -999 3.473185 33.634926 24.142399
2009-03-16 09:44:27 51°12.794 2°49.874 -999 3.474428 33.647407 25.082648
2009-03-16 09:45:27 51°12.764 2°49.819 -999 3.473393 33.653253 25.36124
2009-03-16 09:46:27 51°12.732 2°49.763 -999 3.473911 33.660619 25.779129
2009-03-16 09:47:27 51°12.7 2°49.706 -999 3.474636 33.668425 26.12737
2009-03-16 09:48:27 51°12.668 2°49.646 -999 3.47505 33.669306 25.988073
2009-03-16 09:49:27 51°12.636 2°49.586 -999 3.475568 33.679359 26.30149
2009-03-16 09:50:27 51°12.604 2°49.526 -999 3.475879 33.677332 26.12737
2009-03-16 09:51:27 51°12.573 2°49.466 -999 3.476293 33.680002 27.520332
2009-03-16 09:52:27 51°12.541 2°49.406 -999 3.476086 33.667031 26.963147
2009-03-16 09:53:27 51°12.51 2°49.346 -999 3.475775 33.664582 28.495405
2009-03-16 09:54:27 51°12.481 2°49.286 -999 3.475464 33.654977 29.191886
2009-03-16 09:55:27 51°12.453 2°49.224 -999 3.475671 33.646478 29.296359
2009-03-16 09:56:26 51°12.428 2°49.172 -999 3.475464 33.632637 28.356109
2009-03-16 09:57:26 51°12.407 2°49.125 -999 3.475568 33.623038 28.70435
2009-03-16 09:58:26 51°12.388 2°49.082 -999 3.476293 33.610316 26.858675
2009-03-16 09:59:27 51°12.362 2°49.016 -999 3.478468 33.598933 24.734408
2009-03-16 10:00:27 51°12.282 2°48.831 -999 3.478261 33.607394 31.316154
2009-03-16 10:01:27 51°12.177 2°48.564 -999 3.479815 33.616948 31.977811
2009-03-16 10:02:27 51°12.097 2°48.251 -999 3.482715 33.648085 31.002737
2009-03-16 10:03:27 51°12.021 2°47.93 -999 3.485202 33.694419 27.346212
2009-03-16 10:04:27 51°11.948 2°47.603 -999 3.486549 33.7402 24.595111
2009-03-16 10:05:26 51°11.871 2°47.283 -999 3.488517 33.750617 22.052955
2009-03-16 10:06:26 51°11.793 2°46.957 -999 3.490175 33.772919 21.008234
2009-03-16 10:07:26 51°11.715 2°46.632 -999 3.490901 33.804041 20.102808
2009-03-16 10:08:27 51°11.633 2°46.301 -999 3.491937 33.815189 19.232207
2009-03-16 10:09:27 51°11.552 2°45.977 -999 3.492558 33.825472 19.267031
2009-03-16 10:10:27 51°11.471 2°45.651 -999 3.493594 33.832129 18.57055
2009-03-16 10:11:27 51°11.389 2°45.328 -999 3.494837 33.833828 19.928688
2009-03-16 10:12:27 51°11.309 2°45.006 -999 3.496806 33.838837 21.391298
2009-03-16 10:13:27 51°11.229 2°44.684 -999 3.497634 33.843261 20.799289
2009-03-16 10:14:27 51°11.147 2°44.362 -999 3.498981 33.852356 18.57055
2009-03-16 10:15:27 51°11.068 2°44.038 -999 3.500121 33.872696 18.988439
2009-03-16 10:16:26 51°10.989 2°43.72 -999 3.501571 33.890095 18.988439
2009-03-16 10:17:26 51°10.908 2°43.397 -999 3.502607 33.906637 19.023263
2009-03-16 10:18:26 51°10.827 2°43.074 -999 3.502711 33.911351 18.953615
2009-03-16 10:19:27 51°10.744 2°42.75 -999 3.504576 33.928717 17.560652
2009-03-16 10:20:27 51°10.673 2°42.422 -999 3.505198 33.935406 17.386532
2009-03-16 10:21:27 51°10.605 2°42.094 -999 3.505508 33.942353 16.376635
2009-03-16 10:22:27 51°10.544 2°41.76 -999 3.504472 33.941114 15.784626
2009-03-16 10:23:27 51°10.479 2°41.428 -999 3.504991 33.958411 14.670256
2009-03-16 10:24:26 51°10.414 2°41.102 -999 3.50468 33.969501 13.207646
2009-03-16 10:25:26 51°10.349 2°40.77 -999 3.504991 33.983686 13.172822
2009-03-16 10:26:26 51°10.282 2°40.438 -999 3.50468 33.988469 12.093276
2009-03-16 10:27:27 51°10.215 2°40.101 -999 3.503023 33.985061 11.710211
2009-03-16 10:28:27 51°10.145 2°39.771 -999 3.501572 33.983886 12.058452
2009-03-16 10:29:27 51°10.074 2°39.442 -999 3.500122 33.97638 11.988804
2009-03-16 10:30:27 51°10.009 2°39.109 -999 3.498879 33.980155 11.745035
2009-03-16 10:31:27 51°9.942 2°38.774 -999 3.498361 33.957379 11.257499
2009-03-16 10:32:27 51°9.875 2°38.437 -999 3.496289 33.944968 10.630666
2009-03-16 10:33:26 51°9.808 2°38.106 -999 3.496185 33.950179 9.411824
2009-03-16 10:34:26 51°9.738 2°37.769 -999 3.493182 33.974772 9.307352
2009-03-16 10:35:26 51°9.668 2°37.432 -999 3.492664 33.983683 8.784991
2009-03-16 10:36:28 51°9.596 2°37.083 -999 3.490695 33.946087 7.91439
2009-03-16 10:37:27 51°9.526 2°36.752 -999 3.489555 33.916577 9.620768
2009-03-16 10:38:27 51°9.452 2°36.417 -999 3.489452 33.905512 11.501267
2009-03-16 10:39:27 51°9.385 2°36.078 -999 3.485411 33.851962 12.615637
2009-03-16 10:40:27 51°9.315 2°35.739 -999 3.488001 33.877208 12.232572
2009-03-16 10:41:27 51°9.241 2°35.402 -999 3.488519 33.863849 11.396795
2009-03-16 10:42:26 51°9.173 2°35.068 -999 3.490073 33.859873 10.769962
2009-03-16 10:43:26 51°9.104 2°34.728 -999 3.492559 33.871357 10.386897
2009-03-16 10:44:26 51°9.032 2°34.39 -999 3.494527 33.896179 10.804786
2009-03-16 10:45:28 51°8.959 2°34.043 -999 3.496392 33.918989 11.570915
2009-03-16 10:46:27 51°8.901 2°33.715 -999 3.499293 33.951169 11.222675
2009-03-16 10:47:27 51°8.875 2°33.443 -999 3.500225 33.956707 10.038657
2009-03-16 10:48:27 51°8.897 2°33.294 -999 3.503229 33.920527 6.695548
2009-03-16 10:49:27 51°8.918 2°33.201 -999 3.502401 33.934127 6.6259
2009-03-16 10:50:27 51°8.913 2°33.159 -999 3.500432 33.928253 7.984038
2009-03-16 10:51:27 51°8.905 2°33.123 -999 3.500847 33.998686 8.192982
2009-03-16 10:52:28 51°8.896 2°33.087 -999 3.500433 34.005988 8.158158
2009-03-16 10:53:27 51°8.887 2°33.054 -999 3.50064 33.980159 7.14826
2009-03-16 10:54:27 51°8.878 2°33.021 -999 3.501158 34.02107 8.541223
2009-03-16 10:55:27 51°8.87 2°32.99 -999 3.499501 34.036733 8.332278
2009-03-16 10:56:27 51°8.861 2°32.959 -999 3.49919 34.010689 7.949214
2009-03-16 10:57:27 51°8.852 2°32.928 -999 3.499604 33.94278 8.158158
2009-03-16 10:58:27 51°8.842 2°32.899 -999 3.502193 33.896781 7.91439
2009-03-16 10:59:27 51°8.833 2°32.87 -999 3.504368 33.882429 7.600973
2009-03-16 11:00:27 51°8.824 2°32.842 -999 3.506336 33.872167 7.113436
2009-03-16 11:01:27 51°8.817 2°32.815 -999 3.509755 33.862265 6.765196
2009-03-16 11:02:27 51°8.826 2°32.802 -999 3.51193 33.871271 6.277659
2009-03-16 11:03:27 51°8.868 2°32.826 -999 3.510274 33.937802 5.407058
2009-03-16 11:04:27 51°8.921 2°32.867 -999 3.504887 33.948279 5.058817
2009-03-16 11:05:27 51°8.962 2°32.905 -999 3.503747 33.937813 4.815049
2009-03-16 11:06:27 51°8.999 2°32.946 -999 3.502608 33.925544 5.058817
2009-03-16 11:07:27 51°9.037 2°32.989 -999 3.501261 33.919153 5.093641
2009-03-16 11:08:27 51°9.076 2°33.035 -999 3.500328 33.908213 5.267761
2009-03-16 11:09:27 51°9.116 2°33.084 -999 3.499914 33.892949 4.954345
2009-03-16 11:10:27 51°9.158 2°33.134 -999 3.499914 33.884852 4.884697
2009-03-16 11:11:27 51°9.202 2°33.188 -999 3.500743 33.909973 5.441882
2009-03-16 11:12:27 51°9.247 2°33.24 -999 3.501054 33.907015 4.466808
2009-03-16 11:13:27 51°9.29 2°33.287 -999 3.501468 33.893477 4.014096
2009-03-16 11:14:27 51°9.33 2°33.334 -999 3.501571 33.889195 3.979271
2009-03-16 11:15:27 51°9.37 2°33.381 -999 3.501364 33.895061 3.839975
2009-03-16 11:16:27 51°9.406 2°33.434 -999 3.501779 33.895921 3.874799
2009-03-16 11:17:27 51°9.429 2°33.499 -999 3.502193 33.920183 4.536456
2009-03-16 11:18:27 51°9.451 2°33.566 -999 3.502815 33.905267 3.561383
2009-03-16 11:19:27 51°9.475 2°33.632 -999 3.503229 33.893537 3.456911
2009-03-16 11:20:27 51°9.5 2°33.697 -999 3.5024 33.866662 3.387263
2009-03-16 11:21:27 51°9.52 2°33.764 -999 3.501157 33.865869 3.805151
2009-03-16 11:22:27 51°9.532 2°33.834 -999 3.502814 33.892677 3.944447
2009-03-16 11:23:27 51°9.535 2°33.894 -999 3.502504 33.908222 4.118568
2009-03-16 11:24:27 51°9.533 2°33.927 -999 3.502711 33.922156 3.700679
2009-03-16 11:25:27 51°9.532 2°33.944 -999 3.503332 33.877581 2.795254
2009-03-16 11:26:27 51°9.532 2°33.948 -999 3.507165 33.849703 2.342541
2009-03-16 11:27:27 51°9.535 2°33.95 -999 3.508304 33.861928 2.551485
2009-03-16 11:28:27 51°9.581 2°34.045 -999 3.510273 33.853502 2.93455
2009-03-16 11:29:27 51°9.69 2°34.21 -999 3.514626 34.087544 2.481837
2009-03-16 11:30:27 51°9.836 2°34.383 -999 3.511519 34.170331 2.586309
2009-03-16 11:31:27 51°9.983 2°34.56 -999 3.510173 34.19226 3.10867
2009-03-16 11:32:27 51°10.131 2°34.734 -999 3.508723 34.207629 3.073846
2009-03-16 11:33:27 51°10.277 2°34.912 -999 3.508516 34.226436 2.621133
2009-03-16 11:34:27 51°10.423 2°35.085 -999 3.508723 34.240595 2.551485
2009-03-16 11:35:27 51°10.57 2°35.251 -999 3.508827 34.248137 2.725606
2009-03-16 11:36:27 51°10.717 2°35.42 -999 3.509759 34.248167 2.690782
2009-03-16 11:37:27 51°10.863 2°35.59 -999 3.51152 34.248938 2.377365
2009-03-16 11:38:27 51°11.007 2°35.766 -999 3.514317 34.255443 2.76043
2009-03-16 11:39:27 51°11.153 2°35.937 -999 3.516286 34.256628 3.28279
2009-03-16 11:40:27 51°11.298 2°36.11 -999 3.516182 34.260998 2.830078
2009-03-16 11:41:27 51°11.443 2°36.283 -999 3.51411 34.255029 2.551485
2009-03-16 11:42:27 51°11.586 2°36.46 -999 3.510381 34.242078 3.143494
2009-03-16 11:43:27 51°11.732 2°36.633 -999 3.507376 34.223236 4.014096
2009-03-16 11:44:27 51°11.881 2°36.799 -999 3.506547 34.214247 5.163289
2009-03-16 11:45:27 51°12.032 2°36.956 -999 3.5052 34.187742 5.85977
2009-03-16 11:46:28 51°12.204 2°37.059 -999 3.502507 34.15123 6.6259
2009-03-16 11:47:27 51°12.379 2°37.13 -999 3.503957 34.166036 7.566149
2009-03-16 11:48:27 51°12.56 2°37.175 -999 3.498984 34.119446 7.635797
2009-03-16 11:49:27 51°12.742 2°37.224 -999 3.499191 34.125344 7.392029
2009-03-16 11:50:28 51°12.929 2°37.255 -999 3.500435 34.140648 6.765196
2009-03-16 11:51:27 51°13.11 2°37.276 -999 3.502092 34.157704 6.6259
2009-03-16 11:52:27 51°13.295 2°37.294 -999 3.502403 34.152848 5.964243
2009-03-16 11:53:27 51°13.482 2°37.279 -999 3.505304 34.168752 5.302586
2009-03-16 11:54:27 51°13.671 2°37.232 -999 3.502714 34.154389 6.347307
2009-03-16 11:55:27 51°13.863 2°37.178 -999 3.504786 34.186909 4.675753
2009-03-16 11:56:27 51°14.051 2°37.119 -999 3.502508 34.25112 5.824946
2009-03-16 11:57:27 51°14.238 2°37.081 -999 3.498572 34.274566 6.347307
2009-03-16 11:58:27 51°14.423 2°37.062 -999 3.496189 34.293817 8.192982
2009-03-16 11:59:27 51°14.609 2°37.044 -999 3.4936 34.29514 10.003833
2009-03-16 12:00:27 51°14.796 2°37.033 -999 3.49246 34.289178 11.292323
2009-03-16 12:01:27 51°14.983 2°37.043 -999 3.49132 34.275818 11.849508
2009-03-16 12:02:27 51°15.172 2°37.054 -999 3.489041 34.254643 10.804786
2009-03-16 12:03:27 51°15.361 2°37.07 -999 3.486244 34.227815 11.222675
2009-03-16 12:04:27 51°15.549 2°37.095 -999 3.482825 34.182217 11.153027
2009-03-16 12:05:27 51°15.732 2°37.163 -999 3.482721 34.182009 11.431619
2009-03-16 12:06:27 51°15.912 2°37.25 -999 3.481375 34.162714 11.95398
2009-03-16 12:07:27 51°16.088 2°37.353 -999 3.479199 34.134389 11.570915
2009-03-16 12:08:27 51°16.236 2°37.529 -999 3.479199 34.129789 11.675387
2009-03-16 12:09:27 51°16.358 2°37.71 -999 3.477334 34.110381 10.769962
2009-03-16 12:10:27 51°16.402 2°37.808 -999 3.475987 34.099377 11.640563
2009-03-16 12:11:27 51°16.412 2°37.833 -999 3.474641 34.091129 9.969009
2009-03-16 12:12:28 51°16.418 2°37.839 -999 3.474537 34.089081 9.446648
2009-03-16 12:13:27 51°16.419 2°37.84 -999 3.474641 34.085615 9.899361
2009-03-16 12:14:27 51°16.419 2°37.839 -999 3.474226 34.084773 10.526194
2009-03-16 12:15:27 51°16.416 2°37.836 -999 3.474019 34.08619 12.232572
2009-03-16 12:16:27 51°16.413 2°37.83 -999 3.473708 34.085559 13.381766
2009-03-16 12:17:27 51°16.424 2°37.845 -999 3.473087 34.084296 13.59071
2009-03-16 12:18:27 51°16.467 2°37.906 -999 3.473708 34.080964 9.794888
2009-03-16 12:19:27 51°16.509 2°37.963 -999 3.472569 34.07589 10.282425
2009-03-16 12:20:27 51°16.558 2°37.994 -999 3.471119 34.060995 8.854639
2009-03-16 12:21:27 51°16.599 2°38.04 -999 3.471119 34.062832 11.77986
2009-03-16 12:22:27 51°16.637 2°38.089 -999 3.470911 34.058736 9.934185
2009-03-16 12:23:27 51°16.675 2°38.136 -999 3.471015 34.052519 9.098407
2009-03-16 12:24:27 51°16.713 2°38.185 -999 3.470704 34.041789 8.750167
2009-03-16 12:25:27 51°16.752 2°38.233 -999 3.470497 34.029442 8.645695
2009-03-16 12:26:27 51°16.792 2°38.281 -999 3.470082 34.011181 8.541223
2009-03-16 12:27:27 51°16.831 2°38.328 -999 3.468528 33.989682 8.541223
2009-03-16 12:28:28 51°16.87 2°38.377 -999 3.467181 33.975934 8.541223
2009-03-16 12:29:27 51°16.908 2°38.424 -999 3.46511 33.961607 8.541223
2009-03-16 12:30:28 51°16.947 2°38.473 -999 3.463038 33.940875 8.471574
2009-03-16 12:31:27 51°16.984 2°38.521 -999 3.462209 33.924541 8.332278
2009-03-16 12:32:27 51°17.022 2°38.568 -999 3.460655 33.908538 7.91439
2009-03-16 12:33:27 51°17.06 2°38.616 -999 3.459101 33.898014 8.576047
2009-03-16 12:34:27 51°17.095 2°38.667 -999 3.457651 33.891355 9.585944
2009-03-16 12:35:27 51°17.127 2°38.72 -999 3.456408 33.887863 9.655592
2009-03-16 12:36:27 51°17.157 2°38.772 -999 3.455268 33.877278 9.20288
2009-03-16 12:37:27 51°17.184 2°38.81 -999 3.45475 33.870723 9.028759
2009-03-16 12:38:27 51°17.202 2°38.823 -999 3.453507 33.866313 9.411824
2009-03-16 12:39:27 51°17.216 2°38.824 -999 3.453403 33.848757 9.446648
2009-03-16 12:40:27 51°17.231 2°38.878 -999 3.4533 33.838511 12.058452
2009-03-16 12:41:27 51°17.169 2°39.023 -999 3.450606 33.818305 11.710211
2009-03-16 12:42:27 51°17.033 2°39.224 -999 3.448742 33.810761 14.182719
2009-03-16 12:43:27 51°16.871 2°39.41 -999 3.443666 33.742755 13.24247
2009-03-16 12:44:27 51°16.72 2°39.62 -999 3.439729 33.669073 10.630666
2009-03-16 12:45:27 51°16.579 2°39.844 -999 3.436828 33.637542 9.864537
2009-03-16 12:46:28 51°16.438 2°40.072 -999 3.434032 33.616191 8.924287
2009-03-16 12:47:27 51°16.3 2°40.295 -999 3.43455 33.657168 7.949214
2009-03-16 12:48:27 51°16.159 2°40.521 -999 3.439626 33.692435 7.740269
2009-03-16 12:49:27 51°16.013 2°40.743 -999 3.446566 33.745228 7.600973
2009-03-16 12:50:27 51°15.87 2°40.97 -999 3.457132 33.820109 7.775093
2009-03-16 12:51:27 51°15.725 2°41.195 -999 3.461794 33.868954 8.43675
2009-03-16 12:52:27 51°15.582 2°41.424 -999 3.465523 33.904936 8.401926
2009-03-16 12:53:28 51°15.458 2°41.678 -999 3.468527 33.931209 8.332278
2009-03-16 12:54:28 51°15.412 2°41.979 -999 3.469045 33.942312 8.924287
2009-03-16 12:55:27 51°15.384 2°42.282 -999 3.46801 33.944739 11.257499
2009-03-16 12:56:27 51°15.352 2°42.592 -999 3.469978 33.976197 10.038657
2009-03-16 12:57:28 51°15.323 2°42.907 -999 3.47982 34.063131 7.670621
2009-03-16 12:58:27 51°15.301 2°43.213 -999 3.491319 34.161616 6.312483
2009-03-16 12:59:27 51°15.272 2°43.526 -999 3.498364 34.21526 5.894594
2009-03-16 13:00:28 51°15.24 2°43.844 -999 3.503958 34.247585 4.989169
2009-03-16 13:01:27 51°15.212 2°44.153 -999 3.505201 34.24456 4.39716
2009-03-16 13:02:28 51°15.189 2°44.472 -999 3.50748 34.242693 3.491735
2009-03-16 13:03:28 51°15.16 2°44.786 -999 3.509863 34.225472 2.725606
2009-03-16 13:04:28 51°15.132 2°45.094 -999 3.510897 34.104458 2.481837
2009-03-16 13:05:28 51°15.11 2°45.401 -999 3.494839 34.019017 3.143494
2009-03-16 13:06:28 51°15.089 2°45.708 -999 3.487795 33.966404 3.700679
2009-03-16 13:07:28 51°15.067 2°46.015 -999 3.48334 33.912759 3.944447
2009-03-16 13:08:28 51°15.042 2°46.32 -999 3.476709 33.788677 4.780225
2009-03-16 13:09:28 51°15.018 2°46.626 -999 3.474636 33.707864 5.163289
2009-03-16 13:10:28 51°14.991 2°46.93 -999 3.476501 33.691189 4.466808
2009-03-16 13:11:28 51°14.966 2°47.236 -999 3.471736 33.708014 5.441882
2009-03-16 13:12:28 51°14.943 2°47.544 -999 3.48282 33.771815 5.372234
2009-03-16 13:13:28 51°14.933 2°47.854 -999 3.483751 33.631582 6.97414
2009-03-16 13:14:28 51°14.925 2°48.161 -999 3.423254 33.121213 8.715343
2009-03-16 13:15:28 51°14.917 2°48.465 -999 3.395806 32.934253 9.760064
2009-03-16 13:16:28 51°14.908 2°48.77 -999 3.36318 32.695865 10.386897
2009-03-16 13:17:28 51°14.898 2°49.076 -999 3.356345 32.65013 11.675387
2009-03-16 13:18:28 51°14.892 2°49.38 -999 3.328382 32.431145 15.157793
2009-03-16 13:19:28 51°14.882 2°49.684 -999 3.312537 32.314714 17.630301
2009-03-16 13:20:28 51°14.87 2°49.989 -999 3.29835 32.207273 21.460946
2009-03-16 13:21:28 51°14.855 2°50.295 -999 3.296279 32.203093 28.007869
2009-03-16 13:22:28 51°14.84 2°50.602 -999 3.278674 32.020292 25.013
2009-03-16 13:23:28 51°14.818 2°50.908 -999 3.267594 31.893509 19.998336
2009-03-16 13:24:28 51°14.791 2°51.214 -999 3.255996 31.791266 19.650096
2009-03-16 13:25:28 51°14.768 2°51.522 -999 3.246263 31.70997 22.819085
2009-03-16 13:26:28 51°14.74 2°51.829 -999 3.245538 31.694418 26.928323
2009-03-16 13:27:28 51°14.713 2°52.139 -999 3.255478 31.728267 22.540492
2009-03-16 13:28:28 51°14.692 2°52.451 -999 3.269456 31.741564 17.734773
2009-03-16 13:29:28 51°14.68 2°52.764 -999 3.265624 31.671469 16.028394
2009-03-16 13:30:28 51°14.667 2°53.081 -999 3.275462 31.796803 18.152661
2009-03-16 13:31:28 51°14.626 2°53.392 -999 3.282607 31.846355 16.655227
2009-03-16 13:32:28 51°14.59 2°53.706 -999 3.267178 31.717909 17.45618
2009-03-16 13:33:28 51°14.569 2°54.021 -999 3.265415 31.504679 18.39643
2009-03-16 13:34:28 51°14.534 2°54.333 -999 3.237252 31.430791 22.43602
2009-03-16 13:35:28 51°14.481 2°54.638 -999 3.227726 31.314918 29.22671
2009-03-16 13:36:28 51°14.402 2°54.934 -999 3.243879 31.484313 22.958381
2009-03-16 13:37:28 51°14.299 2°55.193 -999 3.259515 31.611756 27.555156
2009-03-16 13:38:28 51°14.192 2°55.352 -999 3.263962 31.210781 31.525098
2009-03-16 13:39:28 51°14.091 2°55.456 -999 3.091682 29.296562 31.62957
2009-03-16 13:40:28 51°13.979 2°55.538 -999 3.05949 28.950521 33.510069
2009-03-16 13:41:28 51°13.871 2°55.61 -999 2.343211 19.396222 3.631031
2009-03-16 13:42:28 51°13.771 2°55.688 -999 0.587649 4.059907 -1.174688
2009-03-16 13:43:28 51°13.704 2°55.804 -999 0.231381 1.517328 -1.139864
2009-03-16 13:44:27 51°13.676 2°55.908 -999 0.169313 1.094535 -1.174688
2009-03-16 13:45:28 51°13.665 2°55.954 -999 0.140288 0.900897 -1.174688